createdAt,value
2022-08-18T00:04:10.886Z,8.71
2022-08-18T00:09:06.062Z,9.04
2022-08-18T00:14:04.960Z,11.20
2022-08-18T00:19:08.759Z,9.63
2022-08-18T00:24:04.925Z,15.36
2022-08-18T00:29:04.038Z,13.71
2022-08-18T00:34:02.948Z,12.21
2022-08-18T00:39:01.964Z,23.08
2022-08-18T00:44:00.972Z,13.71
2022-08-18T00:49:00.003Z,12.49
2022-08-18T00:53:58.965Z,12.60
2022-08-18T00:58:58.014Z,13.74
2022-08-18T01:03:58.117Z,12.25
2022-08-18T01:08:57.061Z,14.23
2022-08-18T01:13:55.984Z,11.27
2022-08-18T01:19:15.305Z,11.72
2022-08-18T01:24:16.461Z,13.94
2022-08-18T01:29:19.130Z,15.25
2022-08-18T01:34:16.061Z,12.61
2022-08-18T01:39:14.972Z,10.54
2022-08-18T01:44:16.037Z,25.05
2022-08-18T01:49:15.048Z,12.89
2022-08-18T01:54:14.115Z,9.92
2022-08-18T01:59:14.457Z,12.55
2022-08-18T02:04:33.827Z,11.93
2022-08-18T02:09:23.697Z,7.88
2022-08-18T02:14:19.025Z,13.09
2022-08-18T02:19:20.077Z,16.28
2022-08-18T02:24:19.021Z,12.37
2022-08-18T02:29:18.132Z,12.37
2022-08-18T02:34:17.313Z,7.91
2022-08-18T02:39:16.125Z,10.90
2022-08-18T02:44:15.129Z,11.21
2022-08-18T02:49:14.048Z,10.93
2022-08-18T02:54:13.044Z,15.35
2022-08-18T02:59:12.085Z,12.22
2022-08-18T03:04:11.281Z,14.52
2022-08-18T03:09:10.026Z,13.00
2022-08-18T03:14:11.349Z,14.38
2022-08-18T03:19:10.026Z,20.68
2022-08-18T03:24:09.334Z,19.94
2022-08-18T03:29:10.113Z,15.65
2022-08-18T03:34:09.057Z,12.33
2022-08-18T03:39:08.152Z,18.83
2022-08-18T03:44:07.147Z,21.89
2022-08-18T03:49:06.240Z,21.67
2022-08-18T03:54:05.212Z,16.88
2022-08-18T03:59:04.087Z,16.37
2022-08-18T04:04:03.075Z,18.47
2022-08-18T04:09:02.116Z,21.27
2022-08-18T04:14:02.517Z,26.08
2022-08-18T04:19:03.084Z,22.67
2022-08-18T04:24:03.677Z,28.94
2022-08-18T04:29:02.152Z,24.82
2022-08-18T04:34:01.173Z,19.61
2022-08-18T04:39:00.163Z,29.42
2022-08-18T04:43:59.176Z,34.92
2022-08-18T04:48:58.568Z,29.73
2022-08-18T04:53:57.080Z,19.60
2022-08-18T04:58:56.086Z,19.87
2022-08-18T05:03:55.103Z,31.39
2022-08-18T05:08:54.291Z,19.09
2022-08-18T05:13:53.748Z,21.71
2022-08-18T05:18:52.916Z,26.18
2022-08-18T05:23:52.105Z,23.31
2022-08-18T05:29:00.151Z,20.74
2022-08-18T05:33:52.150Z,23.54
2022-08-18T05:38:51.174Z,29.07
2022-08-18T05:43:52.135Z,24.38
2022-08-18T05:48:51.235Z,21.67
2022-08-18T05:54:08.444Z,22.43
2022-08-18T05:59:07.144Z,28.59
2022-08-18T06:04:06.136Z,36.93
2022-08-18T06:09:05.359Z,23.39
2022-08-18T06:14:04.125Z,24.60
2022-08-18T06:19:03.259Z,28.61
2022-08-18T06:24:02.241Z,17.41
2022-08-18T06:29:02.247Z,17.46
2022-08-18T06:34:01.175Z,20.19
2022-08-18T06:39:00.192Z,15.37
2022-08-18T06:43:59.198Z,28.20
2022-08-18T06:48:58.228Z,23.01
2022-08-18T06:53:57.215Z,17.59
2022-08-18T06:58:56.235Z,17.12
2022-08-18T07:03:56.163Z,22.10
2022-08-18T07:08:55.172Z,14.05
2022-08-18T07:14:09.555Z,22.20
2022-08-18T07:18:55.236Z,17.10
2022-08-18T07:24:21.141Z,21.16
2022-08-18T07:29:01.404Z,21.98
2022-08-18T07:34:00.218Z,16.99
2022-08-18T07:38:59.296Z,19.00
2022-08-18T07:43:58.908Z,16.89
2022-08-18T07:48:58.793Z,23.23
2022-08-18T07:53:58.263Z,15.17
2022-08-18T07:58:58.171Z,17.60
2022-08-18T08:03:57.308Z,18.64
2022-08-18T08:08:56.608Z,18.28
2022-08-18T08:13:56.657Z,21.17
2022-08-18T08:18:56.286Z,15.19
2022-08-18T08:23:55.324Z,15.85
2022-08-18T08:28:56.090Z,18.91
2022-08-18T08:33:55.272Z,21.41
2022-08-18T08:38:54.279Z,16.22
2022-08-18T08:43:53.479Z,16.57
2022-08-18T08:48:52.391Z,13.66
2022-08-18T08:53:54.285Z,15.31
2022-08-18T08:58:53.684Z,19.67
2022-08-18T09:03:52.291Z,17.96
2022-08-18T09:08:51.308Z,18.62
2022-08-18T09:13:50.341Z,11.74
2022-08-18T09:18:49.379Z,11.81
2022-08-18T09:23:48.351Z,22.82
2022-08-18T09:28:47.983Z,15.04
2022-08-18T09:33:47.293Z,15.02
2022-08-18T09:39:04.664Z,15.39
2022-08-18T09:44:21.718Z,16.71
2022-08-18T09:49:14.329Z,14.79
2022-08-18T09:59:18.389Z,12.10
2022-08-18T10:14:20.334Z,16.78
2022-08-18T10:19:22.095Z,13.21
2022-08-18T10:24:36.908Z,13.29
2022-08-18T10:29:21.505Z,14.12
2022-08-18T10:34:21.432Z,15.37
2022-08-18T10:39:22.387Z,10.31
2022-08-18T10:49:25.181Z,11.94
2022-08-18T10:54:24.435Z,10.66
2022-08-18T10:59:28.746Z,10.65
2022-08-18T11:04:33.329Z,14.85
2022-08-18T11:09:25.822Z,12.69
2022-08-18T11:14:26.581Z,14.20
2022-08-18T11:19:25.444Z,11.04
2022-08-18T11:24:24.961Z,11.02
2022-08-18T11:29:24.498Z,13.83
2022-08-18T11:34:23.496Z,10.73
2022-08-18T11:39:35.977Z,10.53
2022-08-18T11:44:24.745Z,12.52
2022-08-18T11:49:26.511Z,6.68
2022-08-18T11:54:25.400Z,11.36
2022-08-18T11:59:24.479Z,10.74
2022-08-18T12:04:25.782Z,10.72
2022-08-18T12:14:31.667Z,16.17
2022-08-18T12:19:27.641Z,9.73
2022-08-18T12:29:36.585Z,14.34
2022-08-18T12:34:29.441Z,12.59
2022-08-18T12:39:28.622Z,11.15
2022-08-18T12:44:27.533Z,16.49
2022-08-18T12:49:26.955Z,9.86
2022-08-18T12:54:26.897Z,12.14
2022-08-18T12:59:25.706Z,11.57
2022-08-18T13:04:26.811Z,40.08
2022-08-18T13:09:35.325Z,10.41
2022-08-18T13:14:26.563Z,15.80
2022-08-18T13:19:26.487Z,12.66
2022-08-18T13:24:27.550Z,14.07
2022-08-18T13:29:26.526Z,12.15
2022-08-18T13:34:27.053Z,17.91
2022-08-18T13:39:25.781Z,9.63
2022-08-18T13:44:26.548Z,13.58
2022-08-18T13:49:30.303Z,30.44
2022-08-18T13:54:31.451Z,34.47
2022-08-18T13:59:30.625Z,24.02
2022-08-18T14:04:29.498Z,13.27
2022-08-18T14:09:37.574Z,15.39
2022-08-18T14:14:29.929Z,17.47
2022-08-18T14:19:47.809Z,11.87
2022-08-18T14:25:05.899Z,12.57
2022-08-18T14:30:04.563Z,12.59
2022-08-18T14:36:03.827Z,8.88
2022-08-18T14:40:05.052Z,9.10
2022-08-18T14:45:26.738Z,8.03
2022-08-18T14:50:16.533Z,16.06
2022-08-18T14:55:17.824Z,9.01
2022-08-18T15:00:16.492Z,10.76
2022-08-18T15:05:19.805Z,14.10
2022-08-18T15:10:19.887Z,13.44
2022-08-18T15:15:18.391Z,9.52
2022-08-18T15:20:17.601Z,19.27
2022-08-18T15:25:54.627Z,8.86
2022-08-18T15:35:55.991Z,10.02
2022-08-18T15:40:57.646Z,12.78
2022-08-18T15:45:58.490Z,11.01
2022-08-18T15:50:57.539Z,15.53
2022-08-18T15:55:58.572Z,12.03
2022-08-18T16:00:59.826Z,7.59
2022-08-18T16:05:59.603Z,23.55
2022-08-18T16:10:58.723Z,8.37
2022-08-18T16:15:57.696Z,8.56
2022-08-18T16:20:56.918Z,10.04
2022-08-18T16:25:55.724Z,7.96
2022-08-18T16:30:54.756Z,9.74
2022-08-18T16:35:53.833Z,9.83
2022-08-18T16:40:52.778Z,7.56
2022-08-18T16:45:51.962Z,7.57
2022-08-18T16:50:51.075Z,7.07
2022-08-18T16:55:49.681Z,10.90
2022-08-18T17:01:06.788Z,9.13
2022-08-18T17:06:05.932Z,7.85
2022-08-18T17:11:08.171Z,9.12
2022-08-18T17:16:07.020Z,9.80
2022-08-18T17:21:08.836Z,9.50
2022-08-18T17:26:07.702Z,27.50
2022-08-18T17:31:06.855Z,9.88
2022-08-18T17:36:06.343Z,8.30
2022-08-18T17:41:05.843Z,9.96
2022-08-18T17:46:04.889Z,9.76
2022-08-18T17:51:21.947Z,12.88
2022-08-18T17:56:20.975Z,7.41
2022-08-18T18:01:20.213Z,9.74
2022-08-18T18:06:18.739Z,9.63
2022-08-18T18:11:18.263Z,8.56
2022-08-18T18:16:16.767Z,8.74
2022-08-18T18:21:15.736Z,16.99
2022-08-18T18:26:14.792Z,7.37
2022-08-18T18:31:13.812Z,9.09
2022-08-18T18:36:12.819Z,8.21
2022-08-18T18:41:11.835Z,9.06
2022-08-18T18:46:11.610Z,7.99
2022-08-18T18:51:12.286Z,9.12
2022-08-18T18:56:12.608Z,10.45
2022-08-18T19:01:12.010Z,9.19
2022-08-18T19:06:12.999Z,12.71
2022-08-18T19:11:11.845Z,9.07
2022-08-18T19:16:21.449Z,10.38
2022-08-18T19:22:03.939Z,6.57
2022-08-18T19:26:13.991Z,9.31
2022-08-18T19:31:13.035Z,7.30
2022-08-18T19:36:19.372Z,11.56
2022-08-18T19:41:12.788Z,13.24
2022-08-18T19:46:14.011Z,8.39
2022-08-18T19:51:15.736Z,12.23
2022-08-18T19:56:15.721Z,8.93
2022-08-18T20:01:20.875Z,12.77
2022-08-18T20:06:33.890Z,10.49
2022-08-18T20:11:20.496Z,11.31
2022-08-18T20:16:20.782Z,11.14
2022-08-18T20:21:20.076Z,10.93
2022-08-18T20:26:18.736Z,12.89
2022-08-18T20:31:17.918Z,8.86
2022-08-18T20:36:17.230Z,10.15
2022-08-18T20:41:15.835Z,10.89
2022-08-18T20:46:14.860Z,12.14
2022-08-18T20:51:14.065Z,9.33
2022-08-18T20:56:32.416Z,9.62
2022-08-18T21:01:13.982Z,13.78
2022-08-18T21:06:12.773Z,11.18
2022-08-18T21:11:11.857Z,10.06
2022-08-18T21:16:11.178Z,9.32
2022-08-18T21:21:09.901Z,11.06
2022-08-18T21:26:08.789Z,10.03
2022-08-18T21:31:29.218Z,10.93
2022-08-18T21:36:09.482Z,9.16
2022-08-18T21:41:09.280Z,8.80
2022-08-18T21:46:09.708Z,7.49
2022-08-18T21:51:10.910Z,8.91
2022-08-18T21:56:09.926Z,7.62
2022-08-18T22:01:08.879Z,10.24
2022-08-18T22:06:07.940Z,8.62
2022-08-18T22:11:38.373Z,6.60
2022-08-18T22:16:26.741Z,9.03
2022-08-18T22:21:26.068Z,8.02
2022-08-18T22:26:25.753Z,10.26
2022-08-18T22:31:25.212Z,10.35
2022-08-18T22:36:23.936Z,10.33
2022-08-18T22:41:22.946Z,11.85
2022-08-18T22:46:24.265Z,7.26
2022-08-18T22:51:24.086Z,11.28
2022-08-18T22:56:24.598Z,9.91
2022-08-18T23:01:23.998Z,6.51
2022-08-18T23:06:24.905Z,8.99
2022-08-18T23:11:23.858Z,10.48
2022-08-18T23:16:31.240Z,9.74
2022-08-18T23:21:34.593Z,7.61
2022-08-18T23:26:26.229Z,8.04
2022-08-18T23:31:27.277Z,8.74
2022-08-18T23:36:26.114Z,8.55
2022-08-18T23:41:25.000Z,9.06
2022-08-18T23:46:24.125Z,9.23
2022-08-18T23:51:24.003Z,9.63
2022-08-18T23:56:22.967Z,12.77
